sensor_id;sensor_type;location;lat;lon;timestamp;temperature;humidity
19174;DHT22;9719;49.322;8.536;2023-05-10T00:00:32;16.20;99.90
19174;DHT22;9719;49.322;8.536;2023-05-10T00:05:33;16.20;99.90
19174;DHT22;9719;49.322;8.536;2023-05-10T00:10:35;16.10;99.90
19174;DHT22;9719;49.322;8.536;2023-05-10T00:15:39;16.10;99.90
19174;DHT22;9719;49.322;8.536;2023-05-10T00:20:40;16.10;99.90
19174;DHT22;9719;49.322;8.536;2023-05-10T00:25:42;16.10;99.90
19174;DHT22;9719;49.322;8.536;2023-05-10T00:30:45;16.10;99.90
19174;DHT22;9719;49.322;8.536;2023-05-10T00:35:47;16.10;99.90
19174;DHT22;9719;49.322;8.536;2023-05-10T00:40:48;16.10;99.90
19174;DHT22;9719;49.322;8.536;2023-05-10T00:45:52;16.10;99.90
19174;DHT22;9719;49.322;8.536;2023-05-10T00:50:54;16.10;99.90
19174;DHT22;9719;49.322;8.536;2023-05-10T00:55:56;16.10;99.90
19174;DHT22;9719;49.322;8.536;2023-05-10T01:01:00;16.10;99.90
19174;DHT22;9719;49.322;8.536;2023-05-10T01:06:03;16.20;99.90
19174;DHT22;9719;49.322;8.536;2023-05-10T01:11:04;16.10;99.90
19174;DHT22;9719;49.322;8.536;2023-05-10T01:16:08;16.10;99.90
19174;DHT22;9719;49.322;8.536;2023-05-10T01:21:17;16.10;99.90
19174;DHT22;9719;49.322;8.536;2023-05-10T01:32:19;16.10;99.90
19174;DHT22;9719;49.322;8.536;2023-05-10T01:37:31;16.00;99.90
19174;DHT22;9719;49.322;8.536;2023-05-10T01:42:40;16.00;99.90
19174;DHT22;9719;49.322;8.536;2023-05-10T01:47:49;15.90;99.90
19174;DHT22;9719;49.322;8.536;2023-05-10T01:52:54;15.80;99.90
19174;DHT22;9719;49.322;8.536;2023-05-10T01:58:02;15.80;99.90
19174;DHT22;9719;49.322;8.536;2023-05-10T02:03:07;15.80;99.90
19174;DHT22;9719;49.322;8.536;2023-05-10T02:08:10;15.70;99.90
19174;DHT22;9719;49.322;8.536;2023-05-10T02:13:13;15.70;99.90
19174;DHT22;9719;49.322;8.536;2023-05-10T02:18:18;15.70;99.90
19174;DHT22;9719;49.322;8.536;2023-05-10T02:23:20;15.70;99.90
19174;DHT22;9719;49.322;8.536;2023-05-10T02:28:24;15.70;99.90
19174;DHT22;9719;49.322;8.536;2023-05-10T02:33:29;15.70;99.90
19174;DHT22;9719;49.322;8.536;2023-05-10T02:38:33;15.70;99.90
19174;DHT22;9719;49.322;8.536;2023-05-10T02:43:37;15.80;99.90
19174;DHT22;9719;49.322;8.536;2023-05-10T02:48:42;15.80;99.90
19174;DHT22;9719;49.322;8.536;2023-05-10T02:53:46;15.80;99.90
19174;DHT22;9719;49.322;8.536;2023-05-10T02:58:48;15.90;99.90
19174;DHT22;9719;49.322;8.536;2023-05-10T03:03:51;15.90;99.90
19174;DHT22;9719;49.322;8.536;2023-05-10T03:08:53;15.90;99.90
19174;DHT22;9719;49.322;8.536;2023-05-10T03:14:05;15.90;99.90
19174;DHT22;9719;49.322;8.536;2023-05-10T03:19:15;15.90;99.90
19174;DHT22;9719;49.322;8.536;2023-05-10T03:24:20;15.90;99.90
19174;DHT22;9719;49.322;8.536;2023-05-10T03:29:23;15.80;99.90
19174;DHT22;9719;49.322;8.536;2023-05-10T03:34:30;15.80;99.90
19174;DHT22;9719;49.322;8.536;2023-05-10T03:39:31;15.80;99.90
19174;DHT22;9719;49.322;8.536;2023-05-10T03:44:33;15.80;99.90
19174;DHT22;9719;49.322;8.536;2023-05-10T03:49:36;15.80;99.90
19174;DHT22;9719;49.322;8.536;2023-05-10T03:54:38;15.80;99.90
19174;DHT22;9719;49.322;8.536;2023-05-10T03:59:39;15.80;99.90
19174;DHT22;9719;49.322;8.536;2023-05-10T04:04:42;15.70;99.90
19174;DHT22;9719;49.322;8.536;2023-05-10T04:09:44;15.70;99.90
19174;DHT22;9719;49.322;8.536;2023-05-10T04:14:46;15.60;99.90
19174;DHT22;9719;49.322;8.536;2023-05-10T04:19:49;15.60;99.90
19174;DHT22;9719;49.322;8.536;2023-05-10T04:24:53;15.60;99.90
19174;DHT22;9719;49.322;8.536;2023-05-10T04:29:55;15.60;99.90
19174;DHT22;9719;49.322;8.536;2023-05-10T04:34:58;15.60;99.90
19174;DHT22;9719;49.322;8.536;2023-05-10T04:39:59;15.70;99.90
19174;DHT22;9719;49.322;8.536;2023-05-10T04:45:01;15.70;99.90
19174;DHT22;9719;49.322;8.536;2023-05-10T04:50:05;15.70;99.90
19174;DHT22;9719;49.322;8.536;2023-05-10T04:55:08;15.80;99.90
19174;DHT22;9719;49.322;8.536;2023-05-10T05:00:11;15.80;99.90
19174;DHT22;9719;49.322;8.536;2023-05-10T05:05:14;15.90;99.90
19174;DHT22;9719;49.322;8.536;2023-05-10T05:10:16;15.90;99.90
19174;DHT22;9719;49.322;8.536;2023-05-10T05:15:17;16.00;99.90
19174;DHT22;9719;49.322;8.536;2023-05-10T05:20:20;16.10;99.90
19174;DHT22;9719;49.322;8.536;2023-05-10T05:25:22;16.20;99.90
19174;DHT22;9719;49.322;8.536;2023-05-10T05:30:24;16.20;99.90
19174;DHT22;9719;49.322;8.536;2023-05-10T05:35:27;16.30;99.90
19174;DHT22;9719;49.322;8.536;2023-05-10T05:40:29;16.40;99.90
19174;DHT22;9719;49.322;8.536;2023-05-10T05:45:30;16.60;99.90
19174;DHT22;9719;49.322;8.536;2023-05-10T05:50:33;16.70;99.90
19174;DHT22;9719;49.322;8.536;2023-05-10T05:55:35;16.80;99.90
19174;DHT22;9719;49.322;8.536;2023-05-10T06:00:36;17.00;99.90
19174;DHT22;9719;49.322;8.536;2023-05-10T06:05:39;17.00;99.90
19174;DHT22;9719;49.322;8.536;2023-05-10T06:10:41;17.10;99.90
19174;DHT22;9719;49.322;8.536;2023-05-10T06:15:43;17.10;99.90
19174;DHT22;9719;49.322;8.536;2023-05-10T06:20:46;17.10;99.90
19174;DHT22;9719;49.322;8.536;2023-05-10T06:25:47;17.20;99.90
19174;DHT22;9719;49.322;8.536;2023-05-10T06:30:49;17.20;99.90
19174;DHT22;9719;49.322;8.536;2023-05-10T06:35:52;17.40;99.90
19174;DHT22;9719;49.322;8.536;2023-05-10T06:40:54;17.60;99.90
19174;DHT22;9719;49.322;8.536;2023-05-10T06:45:56;17.70;99.90
19174;DHT22;9719;49.322;8.536;2023-05-10T06:50:59;17.70;99.90
19174;DHT22;9719;49.322;8.536;2023-05-10T06:56:00;17.70;99.90
19174;DHT22;9719;49.322;8.536;2023-05-10T07:01:03;17.90;99.90
19174;DHT22;9719;49.322;8.536;2023-05-10T07:06:06;17.90;99.90
19174;DHT22;9719;49.322;8.536;2023-05-10T07:11:08;18.10;99.90
19174;DHT22;9719;49.322;8.536;2023-05-10T07:16:10;18.20;99.90
19174;DHT22;9719;49.322;8.536;2023-05-10T07:21:13;18.10;99.90
19174;DHT22;9719;49.322;8.536;2023-05-10T07:26:15;17.90;99.90
19174;DHT22;9719;49.322;8.536;2023-05-10T07:31:17;17.80;99.90
19174;DHT22;9719;49.322;8.536;2023-05-10T07:36:20;17.90;99.90
19174;DHT22;9719;49.322;8.536;2023-05-10T07:41:21;18.10;99.90
19174;DHT22;9719;49.322;8.536;2023-05-10T07:46:23;18.40;99.90
19174;DHT22;9719;49.322;8.536;2023-05-10T07:51:26;18.70;99.90
19174;DHT22;9719;49.322;8.536;2023-05-10T07:56:29;19.00;99.90
19174;DHT22;9719;49.322;8.536;2023-05-10T08:01:33;19.20;99.90
19174;DHT22;9719;49.322;8.536;2023-05-10T08:06:36;19.30;99.90
19174;DHT22;9719;49.322;8.536;2023-05-10T08:11:37;19.40;99.90
19174;DHT22;9719;49.322;8.536;2023-05-10T08:16:39;19.40;99.90
19174;DHT22;9719;49.322;8.536;2023-05-10T08:21:42;19.60;99.90
19174;DHT22;9719;49.322;8.536;2023-05-10T08:26:44;19.90;99.90
19174;DHT22;9719;49.322;8.536;2023-05-10T08:31:45;20.20;99.90
19174;DHT22;9719;49.322;8.536;2023-05-10T08:36:48;20.50;99.90
19174;DHT22;9719;49.322;8.536;2023-05-10T08:41:51;20.80;99.90
19174;DHT22;9719;49.322;8.536;2023-05-10T08:46:54;20.90;99.90
19174;DHT22;9719;49.322;8.536;2023-05-10T08:52:01;20.70;99.90
19174;DHT22;9719;49.322;8.536;2023-05-10T08:57:03;20.30;99.90
19174;DHT22;9719;49.322;8.536;2023-05-10T09:02:06;19.70;99.90
19174;DHT22;9719;49.322;8.536;2023-05-10T09:07:10;19.40;99.90
19174;DHT22;9719;49.322;8.536;2023-05-10T09:12:13;19.30;99.90
19174;DHT22;9719;49.322;8.536;2023-05-10T09:17:16;19.30;99.90
19174;DHT22;9719;49.322;8.536;2023-05-10T09:22:19;19.40;99.90
19174;DHT22;9719;49.322;8.536;2023-05-10T09:27:26;19.60;99.90
19174;DHT22;9719;49.322;8.536;2023-05-10T09:32:38;20.10;99.90
19174;DHT22;9719;49.322;8.536;2023-05-10T09:37:42;20.60;99.90
19174;DHT22;9719;49.322;8.536;2023-05-10T09:42:52;20.60;99.90
19174;DHT22;9719;49.322;8.536;2023-05-10T09:47:54;21.00;99.90
19174;DHT22;9719;49.322;8.536;2023-05-10T09:52:58;21.00;99.90
19174;DHT22;9719;49.322;8.536;2023-05-10T09:58:01;21.10;99.90
19174;DHT22;9719;49.322;8.536;2023-05-10T10:03:03;21.30;99.90
19174;DHT22;9719;49.322;8.536;2023-05-10T10:08:06;21.50;99.90
19174;DHT22;9719;49.322;8.536;2023-05-10T10:13:08;21.50;99.90
19174;DHT22;9719;49.322;8.536;2023-05-10T10:18:13;21.50;99.90
19174;DHT22;9719;49.322;8.536;2023-05-10T10:23:16;21.40;97.40
19174;DHT22;9719;49.322;8.536;2023-05-10T10:28:26;21.20;99.60
19174;DHT22;9719;49.322;8.536;2023-05-10T10:33:51;21.30;96.00
19174;DHT22;9719;49.322;8.536;2023-05-10T10:39:01;21.60;95.70
19174;DHT22;9719;49.322;8.536;2023-05-10T10:44:24;21.70;94.60
19174;DHT22;9719;49.322;8.536;2023-05-10T10:49:26;21.70;92.40
19174;DHT22;9719;49.322;8.536;2023-05-10T10:54:29;21.70;92.20
19174;DHT22;9719;49.322;8.536;2023-05-10T10:59:31;21.70;91.50
19174;DHT22;9719;49.322;8.536;2023-05-10T11:04:41;21.80;91.10
19174;DHT22;9719;49.322;8.536;2023-05-10T11:09:44;21.80;88.70
19174;DHT22;9719;49.322;8.536;2023-05-10T11:14:50;21.60;90.70
19174;DHT22;9719;49.322;8.536;2023-05-10T11:20:07;21.70;91.30
19174;DHT22;9719;49.322;8.536;2023-05-10T11:25:10;21.70;90.00
19174;DHT22;9719;49.322;8.536;2023-05-10T11:30:14;21.90;90.60
19174;DHT22;9719;49.322;8.536;2023-05-10T11:35:15;22.00;90.90
19174;DHT22;9719;49.322;8.536;2023-05-10T11:40:20;22.00;90.90
19174;DHT22;9719;49.322;8.536;2023-05-10T11:45:24;22.00;88.70
19174;DHT22;9719;49.322;8.536;2023-05-10T11:50:26;22.00;89.60
19174;DHT22;9719;49.322;8.536;2023-05-10T11:55:33;21.70;90.20
19174;DHT22;9719;49.322;8.536;2023-05-10T12:00:35;21.60;90.00
19174;DHT22;9719;49.322;8.536;2023-05-10T12:05:37;21.30;89.90
19174;DHT22;9719;49.322;8.536;2023-05-10T12:10:40;21.10;90.00
19174;DHT22;9719;49.322;8.536;2023-05-10T12:15:43;21.10;90.50
19174;DHT22;9719;49.322;8.536;2023-05-10T12:20:45;21.30;91.00
19174;DHT22;9719;49.322;8.536;2023-05-10T12:25:48;21.50;88.40
19174;DHT22;9719;49.322;8.536;2023-05-10T12:30:53;21.60;88.10
19174;DHT22;9719;49.322;8.536;2023-05-10T12:35:54;21.60;85.60
19174;DHT22;9719;49.322;8.536;2023-05-10T12:40:59;21.80;84.90
19174;DHT22;9719;49.322;8.536;2023-05-10T12:46:05;22.00;83.70
19174;DHT22;9719;49.322;8.536;2023-05-10T12:51:07;21.90;80.00
19174;DHT22;9719;49.322;8.536;2023-05-10T12:56:11;22.10;81.30
19174;DHT22;9719;49.322;8.536;2023-05-10T13:01:13;22.00;79.30
19174;DHT22;9719;49.322;8.536;2023-05-10T13:06:14;22.00;79.50
19174;DHT22;9719;49.322;8.536;2023-05-10T13:11:18;22.10;78.80
19174;DHT22;9719;49.322;8.536;2023-05-10T13:16:21;21.90;76.40
19174;DHT22;9719;49.322;8.536;2023-05-10T13:21:23;21.90;75.30
19174;DHT22;9719;49.322;8.536;2023-05-10T13:26:27;21.80;76.20
19174;DHT22;9719;49.322;8.536;2023-05-10T13:31:28;21.70;75.40
19174;DHT22;9719;49.322;8.536;2023-05-10T13:36:30;21.90;76.30
19174;DHT22;9719;49.322;8.536;2023-05-10T13:41:33;21.70;75.20
19174;DHT22;9719;49.322;8.536;2023-05-10T13:46:35;21.70;74.90
19174;DHT22;9719;49.322;8.536;2023-05-10T13:51:38;21.70;75.20
19174;DHT22;9719;49.322;8.536;2023-05-10T13:56:42;21.80;75.90
19174;DHT22;9719;49.322;8.536;2023-05-10T14:01:44;21.90;72.90
19174;DHT22;9719;49.322;8.536;2023-05-10T14:06:45;21.90;73.50
19174;DHT22;9719;49.322;8.536;2023-05-10T14:11:49;21.90;72.30
19174;DHT22;9719;49.322;8.536;2023-05-10T14:16:50;21.90;71.30
19174;DHT22;9719;49.322;8.536;2023-05-10T14:21:52;21.70;72.00
19174;DHT22;9719;49.322;8.536;2023-05-10T14:26:55;21.60;71.20
19174;DHT22;9719;49.322;8.536;2023-05-10T14:31:57;21.60;71.40
19174;DHT22;9719;49.322;8.536;2023-05-10T14:36:59;21.60;70.70
19174;DHT22;9719;49.322;8.536;2023-05-10T14:42:01;21.70;70.10
19174;DHT22;9719;49.322;8.536;2023-05-10T14:47:04;21.90;71.20
19174;DHT22;9719;49.322;8.536;2023-05-10T14:52:06;22.00;70.90
19174;DHT22;9719;49.322;8.536;2023-05-10T14:57:09;22.10;70.70
19174;DHT22;9719;49.322;8.536;2023-05-10T15:02:10;22.30;71.00
19174;DHT22;9719;49.322;8.536;2023-05-10T15:07:12;22.30;72.00
19174;DHT22;9719;49.322;8.536;2023-05-10T15:12:18;22.30;70.60
19174;DHT22;9719;49.322;8.536;2023-05-10T15:17:19;22.20;70.60
19174;DHT22;9719;49.322;8.536;2023-05-10T15:22:21;22.30;71.20
19174;DHT22;9719;49.322;8.536;2023-05-10T15:27:24;22.30;70.30
19174;DHT22;9719;49.322;8.536;2023-05-10T15:32:26;22.30;71.30
19174;DHT22;9719;49.322;8.536;2023-05-10T15:37:29;22.40;69.70
19174;DHT22;9719;49.322;8.536;2023-05-10T15:42:32;22.30;68.70
19174;DHT22;9719;49.322;8.536;2023-05-10T15:47:34;22.30;69.10
19174;DHT22;9719;49.322;8.536;2023-05-10T15:52:36;22.30;70.00
19174;DHT22;9719;49.322;8.536;2023-05-10T15:57:40;22.20;69.40
19174;DHT22;9719;49.322;8.536;2023-05-10T16:02:41;22.00;69.10
19174;DHT22;9719;49.322;8.536;2023-05-10T16:07:43;22.00;69.80
19174;DHT22;9719;49.322;8.536;2023-05-10T16:12:46;21.90;69.70
19174;DHT22;9719;49.322;8.536;2023-05-10T16:17:48;21.70;70.00
19174;DHT22;9719;49.322;8.536;2023-05-10T16:22:49;21.60;70.60
19174;DHT22;9719;49.322;8.536;2023-05-10T16:27:53;21.50;70.80
19174;DHT22;9719;49.322;8.536;2023-05-10T16:32:54;21.40;71.20
19174;DHT22;9719;49.322;8.536;2023-05-10T16:37:56;21.40;71.80
19174;DHT22;9719;49.322;8.536;2023-05-10T16:42:59;21.30;73.10
19174;DHT22;9719;49.322;8.536;2023-05-10T16:48:01;21.20;73.10
19174;DHT22;9719;49.322;8.536;2023-05-10T16:53:03;21.10;73.90
19174;DHT22;9719;49.322;8.536;2023-05-10T16:58:06;21.10;75.10
19174;DHT22;9719;49.322;8.536;2023-05-10T17:03:07;21.10;75.80
19174;DHT22;9719;49.322;8.536;2023-05-10T17:08:09;21.00;76.50
19174;DHT22;9719;49.322;8.536;2023-05-10T17:13:12;20.90;77.30
19174;DHT22;9719;49.322;8.536;2023-05-10T17:18:16;20.80;78.00
19174;DHT22;9719;49.322;8.536;2023-05-10T17:23:18;20.70;78.90
19174;DHT22;9719;49.322;8.536;2023-05-10T17:28:21;20.60;79.30
19174;DHT22;9719;49.322;8.536;2023-05-10T17:33:23;20.40;79.30
19174;DHT22;9719;49.322;8.536;2023-05-10T17:38:25;20.30;80.00
19174;DHT22;9719;49.322;8.536;2023-05-10T17:43:28;20.20;80.50
19174;DHT22;9719;49.322;8.536;2023-05-10T17:48:30;20.00;80.70
19174;DHT22;9719;49.322;8.536;2023-05-10T17:53:32;19.90;80.70
19174;DHT22;9719;49.322;8.536;2023-05-10T17:58:35;19.80;81.40
19174;DHT22;9719;49.322;8.536;2023-05-10T18:03:38;19.60;82.00
19174;DHT22;9719;49.322;8.536;2023-05-10T18:08:39;19.50;82.60
19174;DHT22;9719;49.322;8.536;2023-05-10T18:13:43;19.40;83.20
19174;DHT22;9719;49.322;8.536;2023-05-10T18:18:44;19.20;83.80
19174;DHT22;9719;49.322;8.536;2023-05-10T18:23:46;19.10;84.30
19174;DHT22;9719;49.322;8.536;2023-05-10T18:28:49;19.00;84.60
19174;DHT22;9719;49.322;8.536;2023-05-10T18:33:51;18.90;86.00
19174;DHT22;9719;49.322;8.536;2023-05-10T18:38:53;18.80;86.20
19174;DHT22;9719;49.322;8.536;2023-05-10T18:43:56;18.70;86.90
19174;DHT22;9719;49.322;8.536;2023-05-10T18:48:58;18.60;87.60
19174;DHT22;9719;49.322;8.536;2023-05-10T18:53:59;18.50;88.40
19174;DHT22;9719;49.322;8.536;2023-05-10T18:59:02;18.30;89.00
19174;DHT22;9719;49.322;8.536;2023-05-10T19:04:04;18.20;90.00
19174;DHT22;9719;49.322;8.536;2023-05-10T19:09:06;18.10;90.60
19174;DHT22;9719;49.322;8.536;2023-05-10T19:14:09;18.00;91.10
19174;DHT22;9719;49.322;8.536;2023-05-10T19:19:11;18.00;91.80
19174;DHT22;9719;49.322;8.536;2023-05-10T19:24:12;17.90;92.50
19174;DHT22;9719;49.322;8.536;2023-05-10T19:29:15;17.90;93.00
19174;DHT22;9719;49.322;8.536;2023-05-10T19:34:18;17.80;93.70
19174;DHT22;9719;49.322;8.536;2023-05-10T19:39:20;17.80;94.10
19174;DHT22;9719;49.322;8.536;2023-05-10T19:44:23;17.70;94.70
19174;DHT22;9719;49.322;8.536;2023-05-10T19:49:25;17.70;95.50
19174;DHT22;9719;49.322;8.536;2023-05-10T19:54:26;17.70;95.90
19174;DHT22;9719;49.322;8.536;2023-05-10T19:59:29;17.60;96.70
19174;DHT22;9719;49.322;8.536;2023-05-10T20:04:31;17.60;97.30
19174;DHT22;9719;49.322;8.536;2023-05-10T20:09:33;17.50;97.90
19174;DHT22;9719;49.322;8.536;2023-05-10T20:14:36;17.40;98.50
19174;DHT22;9719;49.322;8.536;2023-05-10T20:19:38;17.40;99.10
19174;DHT22;9719;49.322;8.536;2023-05-10T20:24:39;17.30;99.60
19174;DHT22;9719;49.322;8.536;2023-05-10T20:29:42;17.30;99.90
19174;DHT22;9719;49.322;8.536;2023-05-10T20:34:44;17.20;99.90
19174;DHT22;9719;49.322;8.536;2023-05-10T20:39:46;17.20;99.90
19174;DHT22;9719;49.322;8.536;2023-05-10T20:44:49;17.10;99.90
19174;DHT22;9719;49.322;8.536;2023-05-10T20:49:51;17.10;99.90
19174;DHT22;9719;49.322;8.536;2023-05-10T20:54:52;16.90;99.90
19174;DHT22;9719;49.322;8.536;2023-05-10T20:59:55;16.90;99.90
19174;DHT22;9719;49.322;8.536;2023-05-10T21:04:58;16.80;99.90
19174;DHT22;9719;49.322;8.536;2023-05-10T21:10:00;16.70;99.90
19174;DHT22;9719;49.322;8.536;2023-05-10T21:15:04;16.60;99.90
19174;DHT22;9719;49.322;8.536;2023-05-10T21:20:07;16.60;99.90
19174;DHT22;9719;49.322;8.536;2023-05-10T21:25:09;16.50;99.90
19174;DHT22;9719;49.322;8.536;2023-05-10T21:30:12;16.50;99.90
19174;DHT22;9719;49.322;8.536;2023-05-10T21:35:14;16.50;99.90
19174;DHT22;9719;49.322;8.536;2023-05-10T21:40:16;16.40;99.90
19174;DHT22;9719;49.322;8.536;2023-05-10T21:45:19;16.30;99.90
19174;DHT22;9719;49.322;8.536;2023-05-10T21:50:21;16.20;99.90
19174;DHT22;9719;49.322;8.536;2023-05-10T21:55:23;16.10;99.90
19174;DHT22;9719;49.322;8.536;2023-05-10T22:00:26;16.00;99.90
19174;DHT22;9719;49.322;8.536;2023-05-10T22:05:28;16.00;99.90
19174;DHT22;9719;49.322;8.536;2023-05-10T22:10:29;15.90;99.90
19174;DHT22;9719;49.322;8.536;2023-05-10T22:15:33;15.80;99.90
19174;DHT22;9719;49.322;8.536;2023-05-10T22:20:35;15.70;99.90
19174;DHT22;9719;49.322;8.536;2023-05-10T22:25:36;15.70;99.90
19174;DHT22;9719;49.322;8.536;2023-05-10T22:30:40;15.60;99.90
19174;DHT22;9719;49.322;8.536;2023-05-10T22:35:42;15.50;99.90
19174;DHT22;9719;49.322;8.536;2023-05-10T22:40:43;15.40;99.90
19174;DHT22;9719;49.322;8.536;2023-05-10T22:45:46;15.30;99.90
19174;DHT22;9719;49.322;8.536;2023-05-10T22:50:48;15.20;99.90
19174;DHT22;9719;49.322;8.536;2023-05-10T22:55:50;15.20;99.90
19174;DHT22;9719;49.322;8.536;2023-05-10T23:00:54;15.20;99.90
19174;DHT22;9719;49.322;8.536;2023-05-10T23:05:55;15.20;99.90
19174;DHT22;9719;49.322;8.536;2023-05-10T23:10:57;15.20;99.90
19174;DHT22;9719;49.322;8.536;2023-05-10T23:16:05;15.20;99.90
19174;DHT22;9719;49.322;8.536;2023-05-10T23:21:06;15.20;99.90
19174;DHT22;9719;49.322;8.536;2023-05-10T23:26:08;15.10;99.90
19174;DHT22;9719;49.322;8.536;2023-05-10T23:31:11;15.10;99.90
19174;DHT22;9719;49.322;8.536;2023-05-10T23:36:13;15.10;99.90
19174;DHT22;9719;49.322;8.536;2023-05-10T23:41:14;15.00;99.90
19174;DHT22;9719;49.322;8.536;2023-05-10T23:46:17;14.90;99.90
19174;DHT22;9719;49.322;8.536;2023-05-10T23:51:19;14.90;99.90
19174;DHT22;9719;49.322;8.536;2023-05-10T23:56:20;14.80;99.90
